Time;durP1;ratioP1;P1;durP2;ratioP2;P2;SDS_P1;SDS_P2;PMS_P1;PMS_P2;Temp;Humidity;BMP_temperature;BMP_pressure;BME280_temperature;BME280_humidity;BME280_pressure;Samples;Min_cycle;Max_cycle;Signal;HPM_P1;HPM_P2
2023/01/13 00:01:26;;;;;;;;;;;10.00;93.00;;;;;;5018545;28;19929;-78
2023/01/13 00:03:53;;;;;;;;;;;10.10;93.00;;;;;;5023155;28;20414;-78
2023/01/13 00:06:21;;;;;;;;;;;10.10;93.00;;;;;;5026033;28;19933;-79
2023/01/13 00:08:48;;;;;;;;;;;10.10;93.10;;;;;;5017285;28;20027;-78
2023/01/13 00:11:16;;;;;;;;;;;10.10;93.10;;;;;;5020249;28;19933;-77
2023/01/13 00:13:43;;;;;;;;;;;10.10;93.20;;;;;;5023664;28;19933;-77
2023/01/13 00:16:11;;;;;;;;;;;10.00;93.20;;;;;;5019465;28;19929;-77
2023/01/13 00:18:37;;;;;;;;;;;10.10;93.40;;;;;;5020886;28;19929;-77
2023/01/13 00:21:05;;;;;;;;;;;10.10;93.40;;;;;;5020095;28;19929;-78
2023/01/13 00:23:32;;;;;;;;;;;10.10;93.40;;;;;;5017952;28;19975;-79
2023/01/13 00:26:00;;;;;;;;;;;10.00;93.40;;;;;;5020949;28;19940;-78
2023/01/13 00:28:28;;;;;;;;;;;10.00;93.40;;;;;;5022821;28;20024;-78
2023/01/13 00:30:57;;;;;;;;;;;10.10;93.50;;;;;;5017257;28;19930;-78
2023/01/13 00:33:24;;;;;;;;;;;10.10;93.50;;;;;;5016460;28;19929;-77
2023/01/13 00:35:55;;;;;;;;;;;10.10;93.60;;;;;;5020106;28;19929;-78
2023/01/13 00:38:21;;;;;;;;;;;10.00;93.60;;;;;;5020205;28;19929;-78
2023/01/13 00:40:54;;;;;;;;;;;10.10;93.70;;;;;;5023269;28;19933;-78
2023/01/13 00:43:23;;;;;;;;;;;10.10;93.70;;;;;;5021548;28;19933;-79
2023/01/13 00:45:51;;;;;;;;;;;10.10;93.70;;;;;;5017507;28;19976;-78
2023/01/13 00:48:18;;;;;;;;;;;10.00;93.70;;;;;;5020315;28;19941;-77
2023/01/13 00:50:44;;;;;;;;;;;10.10;93.70;;;;;;5022487;28;20373;-78
2023/01/13 00:53:11;;;;;;;;;;;10.10;93.60;;;;;;5018980;28;21214;-78
2023/01/13 00:55:38;;;;;;;;;;;10.10;93.60;;;;;;5022892;28;19925;-78
2023/01/13 00:58:04;;;;;;;;;;;10.10;93.60;;;;;;5024985;28;19933;-78
2023/01/13 01:00:31;;;;;;;;;;;10.10;93.60;;;;;;5021289;28;19928;-77
2023/01/13 01:02:59;;;;;;;;;;;10.10;93.60;;;;;;5024135;28;19983;-78
2023/01/13 01:05:25;;;;;;;;;;;10.10;93.70;;;;;;5024574;28;20264;-78
2023/01/13 01:07:52;;;;;;;;;;;10.10;93.90;;;;;;5024097;28;19933;-77
2023/01/13 01:10:18;;;;;;;;;;;10.10;94.10;;;;;;5016584;28;19929;-78
2023/01/13 01:12:45;;;;;;;;;;;10.10;94.20;;;;;;5020417;28;19960;-78
2023/01/13 01:15:11;;;;;;;;;;;10.10;94.30;;;;;;5022644;28;19979;-78
2023/01/13 01:17:38;;;;;;;;;;;10.10;94.50;;;;;;5013273;28;19937;-77
2023/01/13 01:20:06;;;;;;;;;;;10.10;94.60;;;;;;5019368;28;19930;-79
2023/01/13 01:22:33;;;;;;;;;;;10.10;94.70;;;;;;5018253;28;19945;-78
2023/01/13 01:24:59;;;;;;;;;;;10.10;94.80;;;;;;5021904;28;19933;-78
2023/01/13 01:27:26;;;;;;;;;;;10.00;94.90;;;;;;5015868;28;19933;-78
2023/01/13 01:29:52;;;;;;;;;;;10.10;95.00;;;;;;5019071;28;19952;-78
2023/01/13 01:32:19;;;;;;;;;;;10.10;95.10;;;;;;5018184;28;19933;-79
2023/01/13 01:34:45;;;;;;;;;;;10.10;95.20;;;;;;5024610;28;19936;-78
2023/01/13 01:37:13;;;;;;;;;;;10.10;95.30;;;;;;5019204;28;19933;-78
2023/01/13 01:39:40;;;;;;;;;;;10.00;95.40;;;;;;5018903;28;19940;-78
2023/01/13 01:45:00;;;;;;;;;;;10.00;95.50;;;;;;5020933;28;20034;-79
2023/01/13 01:47:27;;;;;;;;;;;10.00;95.60;;;;;;5019863;28;19929;-79
2023/01/13 01:49:55;;;;;;;;;;;10.00;95.70;;;;;;5014381;28;20046;-79
2023/01/13 01:52:25;;;;;;;;;;;10.00;95.80;;;;;;5015590;28;19952;-78
2023/01/13 01:54:54;;;;;;;;;;;10.00;95.90;;;;;;5017691;28;19991;-77
2023/01/13 01:57:23;;;;;;;;;;;10.00;95.90;;;;;;5017198;28;19925;-77
2023/01/13 01:59:50;;;;;;;;;;;10.00;96.00;;;;;;5018822;28;19933;-78
2023/01/13 02:02:17;;;;;;;;;;;10.00;96.10;;;;;;5019451;28;20512;-78
2023/01/13 02:04:49;;;;;;;;;;;9.90;96.20;;;;;;5017181;28;19937;-77
2023/01/13 02:07:16;;;;;;;;;;;10.00;96.30;;;;;;5022722;28;19933;-78
2023/01/13 02:09:44;;;;;;;;;;;9.90;96.30;;;;;;5018512;28;20395;-77
2023/01/13 02:12:30;;;;;;;;;;;9.90;96.40;;;;;;5011433;28;20409;-78
2023/01/13 02:14:59;;;;;;;;;;;9.90;96.40;;;;;;5016122;28;20394;-77
2023/01/13 02:17:29;;;;;;;;;;;9.90;96.40;;;;;;5014474;28;19940;-78
2023/01/13 02:20:15;;;;;;;;;;;9.90;96.50;;;;;;5012915;28;19929;-77
2023/01/13 02:23:00;;;;;;;;;;;9.90;96.50;;;;;;5017249;28;19938;-78
2023/01/13 02:25:37;;;;;;;;;;;9.90;96.50;;;;;;5015029;28;20007;-78
2023/01/13 02:28:17;;;;;;;;;;;9.90;96.50;;;;;;5019060;28;19929;-78
2023/01/13 02:33:42;;;;;;;;;;;9.90;96.40;;;;;;5020436;28;19936;-78
2023/01/13 02:36:13;;;;;;;;;;;9.90;96.40;;;;;;5016227;28;19929;-78
2023/01/13 02:38:44;;;;;;;;;;;9.90;96.40;;;;;;5016700;28;19929;-77
2023/01/13 02:44:08;;;;;;;;;;;9.90;96.50;;;;;;5018403;28;20303;-78
2023/01/13 02:46:39;;;;;;;;;;;9.90;96.50;;;;;;5019816;28;19929;-78
2023/01/13 02:49:08;;;;;;;;;;;9.90;96.60;;;;;;5015011;28;19924;-77
2023/01/13 02:51:35;;;;;;;;;;;9.90;96.60;;;;;;5020740;28;19983;-78
2023/01/13 02:54:03;;;;;;;;;;;9.90;96.70;;;;;;5019519;28;19939;-77
2023/01/13 02:56:31;;;;;;;;;;;9.90;96.70;;;;;;5018078;28;20328;-78
2023/01/13 02:58:59;;;;;;;;;;;9.90;96.70;;;;;;5018711;28;19929;-78
2023/01/13 03:01:25;;;;;;;;;;;9.90;96.70;;;;;;5013252;28;21915;-79
2023/01/13 03:03:53;;;;;;;;;;;9.90;96.70;;;;;;5018542;28;19933;-79
2023/01/13 03:06:34;;;;;;;;;;;9.90;96.70;;;;;;5019155;28;19933;-77
2023/01/13 03:09:04;;;;;;;;;;;9.90;96.60;;;;;;5010300;28;19930;-79
2023/01/13 03:11:34;;;;;;;;;;;9.90;96.50;;;;;;5016458;28;19929;-78
2023/01/13 03:14:04;;;;;;;;;;;9.90;96.50;;;;;;5017926;28;19975;-78
2023/01/13 03:16:33;;;;;;;;;;;9.90;96.50;;;;;;5017321;28;19929;-78
2023/01/13 03:19:06;;;;;;;;;;;9.90;96.40;;;;;;5016566;28;19929;-79
2023/01/13 03:21:35;;;;;;;;;;;9.90;96.30;;;;;;5016249;28;19937;-78
2023/01/13 03:24:04;;;;;;;;;;;9.90;96.20;;;;;;5014950;28;19933;-76
2023/01/13 03:26:33;;;;;;;;;;;9.90;96.10;;;;;;5012361;28;19929;-78
2023/01/13 03:29:06;;;;;;;;;;;9.90;96.10;;;;;;5012531;28;20184;-78
2023/01/13 03:31:36;;;;;;;;;;;9.90;96.00;;;;;;5015843;28;19940;-78
2023/01/13 03:34:07;;;;;;;;;;;9.90;95.90;;;;;;5012487;28;20011;-78
2023/01/13 03:36:35;;;;;;;;;;;9.90;95.90;;;;;;5020556;28;19929;-78
2023/01/13 03:39:06;;;;;;;;;;;9.90;95.90;;;;;;5017926;28;19925;-78
2023/01/13 03:41:34;;;;;;;;;;;9.90;95.90;;;;;;5025024;28;19929;-77
2023/01/13 03:44:21;;;;;;;;;;;9.90;95.80;;;;;;5022724;28;19957;-78
2023/01/13 03:46:51;;;;;;;;;;;9.90;95.80;;;;;;5020184;28;19929;-78
2023/01/13 03:49:20;;;;;;;;;;;9.90;95.60;;;;;;5020427;28;20016;-78
2023/01/13 03:51:48;;;;;;;;;;;9.90;95.60;;;;;;5019827;28;19933;-77
2023/01/13 03:54:16;;;;;;;;;;;9.90;95.50;;;;;;5023721;28;20736;-79
2023/01/13 03:56:45;;;;;;;;;;;9.90;95.50;;;;;;5020282;28;19940;-78
2023/01/13 03:59:14;;;;;;;;;;;9.90;95.40;;;;;;5021471;28;20731;-78
2023/01/13 04:01:43;;;;;;;;;;;10.00;95.40;;;;;;5022141;28;19936;-79
2023/01/13 04:04:13;;;;;;;;;;;9.90;95.40;;;;;;5024105;28;20617;-78
2023/01/13 04:06:45;;;;;;;;;;;9.90;95.40;;;;;;5022372;28;19933;-78
2023/01/13 04:09:15;;;;;;;;;;;10.00;95.40;;;;;;5022126;28;19999;-78
2023/01/13 04:11:43;;;;;;;;;;;10.00;95.30;;;;;;5016505;28;20403;-79
2023/01/13 04:14:11;;;;;;;;;;;9.90;95.20;;;;;;5021996;28;19936;-78
2023/01/13 04:16:38;;;;;;;;;;;10.00;95.20;;;;;;5019340;28;19987;-78
2023/01/13 04:19:05;;;;;;;;;;;10.00;95.20;;;;;;5022656;28;19956;-79
2023/01/13 04:21:32;;;;;;;;;;;10.00;95.30;;;;;;5024243;28;20322;-78
2023/01/13 04:24:00;;;;;;;;;;;10.00;95.10;;;;;;5022173;28;19933;-77
2023/01/13 04:26:26;;;;;;;;;;;10.00;95.10;;;;;;5021438;28;19936;-78
2023/01/13 04:28:54;;;;;;;;;;;10.00;95.20;;;;;;5018741;28;20357;-79
2023/01/13 04:31:20;;;;;;;;;;;10.00;95.20;;;;;;5014480;28;20349;-78
2023/01/13 04:33:47;;;;;;;;;;;10.00;95.20;;;;;;5021879;28;19936;-77
2023/01/13 04:36:13;;;;;;;;;;;10.00;95.20;;;;;;5022073;28;20189;-79
2023/01/13 04:38:40;;;;;;;;;;;10.00;95.20;;;;;;5018951;28;19968;-77
2023/01/13 04:41:08;;;;;;;;;;;10.00;95.10;;;;;;5018996;28;19929;-78
2023/01/13 04:43:34;;;;;;;;;;;10.00;95.10;;;;;;5014992;28;19983;-77
2023/01/13 04:46:01;;;;;;;;;;;10.00;95.10;;;;;;5021855;28;19929;-77
2023/01/13 04:48:27;;;;;;;;;;;10.00;95.10;;;;;;5017661;28;19963;-78
2023/01/13 04:50:54;;;;;;;;;;;10.00;95.00;;;;;;5023033;28;20122;-78
2023/01/13 04:53:20;;;;;;;;;;;10.00;95.00;;;;;;5019143;28;20111;-78
2023/01/13 04:55:48;;;;;;;;;;;10.00;95.00;;;;;;5018659;28;19936;-77
2023/01/13 04:58:16;;;;;;;;;;;10.00;95.00;;;;;;5018985;28;19933;-78
2023/01/13 05:00:42;;;;;;;;;;;10.00;94.90;;;;;;5020079;28;19933;-77
2023/01/13 05:03:09;;;;;;;;;;;10.00;94.90;;;;;;5020782;28;19936;-76
2023/01/13 05:05:36;;;;;;;;;;;10.00;94.80;;;;;;5020859;28;19936;-77
2023/01/13 05:08:03;;;;;;;;;;;10.00;94.70;;;;;;5017716;28;20008;-78
2023/01/13 05:10:30;;;;;;;;;;;10.00;94.60;;;;;;5016526;28;19940;-78
2023/01/13 05:18:27;;;;;;;;;;;10.00;94.70;;;;;;5018198;28;19944;-78
2023/01/13 05:20:53;;;;;;;;;;;10.00;94.70;;;;;;5020022;28;19933;-77
2023/01/13 05:26:04;;;;;;;;;;;10.00;94.70;;;;;;5019031;28;19936;-78
2023/01/13 05:28:31;;;;;;;;;;;10.00;94.70;;;;;;5022071;28;19937;-79
2023/01/13 05:30:59;;;;;;;;;;;10.00;94.70;;;;;;5016509;28;19980;-78
2023/01/13 05:33:26;;;;;;;;;;;10.10;94.70;;;;;;5017839;28;19936;-77
2023/01/13 05:35:52;;;;;;;;;;;10.10;94.70;;;;;;5021752;28;19940;-78
2023/01/13 05:38:19;;;;;;;;;;;10.10;94.60;;;;;;5021749;28;19937;-78
2023/01/13 05:43:31;;;;;;;;;;;10.10;94.70;;;;;;5019381;28;19960;-78
2023/01/13 05:46:00;;;;;;;;;;;10.10;94.70;;;;;;5017887;28;20417;-78
2023/01/13 05:48:27;;;;;;;;;;;10.10;94.70;;;;;;5021995;28;20307;-78
2023/01/13 05:50:54;;;;;;;;;;;10.10;94.60;;;;;;5018307;28;19933;-79
2023/01/13 05:53:21;;;;;;;;;;;10.10;94.70;;;;;;5017042;28;19956;-78
2023/01/13 05:55:47;;;;;;;;;;;10.10;94.70;;;;;;5022777;28;19936;-77
2023/01/13 05:58:15;;;;;;;;;;;10.10;94.60;;;;;;5017466;28;19933;-79
2023/01/13 06:00:42;;;;;;;;;;;10.10;94.60;;;;;;5021231;28;19944;-78
2023/01/13 06:03:10;;;;;;;;;;;10.10;94.60;;;;;;5020179;28;19941;-78
2023/01/13 06:05:37;;;;;;;;;;;10.10;94.60;;;;;;5023417;28;19940;-79
2023/01/13 06:08:05;;;;;;;;;;;10.10;94.60;;;;;;5017020;28;19933;-79
2023/01/13 06:10:31;;;;;;;;;;;10.10;94.60;;;;;;5019570;28;19937;-78
2023/01/13 06:12:58;;;;;;;;;;;10.10;94.60;;;;;;5018804;28;19929;-78
2023/01/13 06:15:25;;;;;;;;;;;10.10;94.70;;;;;;5021687;28;19936;-78
2023/01/13 06:17:51;;;;;;;;;;;10.10;94.60;;;;;;5020698;28;19936;-79
2023/01/13 06:20:20;;;;;;;;;;;10.10;94.60;;;;;;5016099;28;19929;-78
2023/01/13 06:22:49;;;;;;;;;;;10.10;94.50;;;;;;5017310;28;19929;-79
2023/01/13 06:25:19;;;;;;;;;;;10.10;94.50;;;;;;5020233;28;19937;-78
2023/01/13 06:27:46;;;;;;;;;;;10.10;94.50;;;;;;5021070;28;19928;-80
2023/01/13 06:30:13;;;;;;;;;;;10.10;94.50;;;;;;5014156;28;19935;-77
2023/01/13 06:32:41;;;;;;;;;;;10.10;94.50;;;;;;5014916;28;19982;-79
2023/01/13 06:35:09;;;;;;;;;;;10.10;94.40;;;;;;5018866;28;19929;-79
2023/01/13 06:37:37;;;;;;;;;;;10.20;94.40;;;;;;5022044;28;20392;-78
2023/01/13 06:40:06;;;;;;;;;;;10.10;94.40;;;;;;5017271;28;19976;-79
2023/01/13 06:45:18;;;;;;;;;;;10.10;94.40;;;;;;5019625;28;19932;-78
2023/01/13 06:47:44;;;;;;;;;;;10.10;94.40;;;;;;5018576;28;20346;-75
2023/01/13 06:50:11;;;;;;;;;;;10.10;94.40;;;;;;5018757;28;19933;-75
2023/01/13 06:52:39;;;;;;;;;;;10.10;94.40;;;;;;5018482;28;20406;-74
2023/01/13 06:55:06;;;;;;;;;;;10.10;94.50;;;;;;5020795;28;19929;-75
2023/01/13 06:57:32;;;;;;;;;;;10.10;94.50;;;;;;5016397;28;20006;-75
2023/01/13 06:59:59;;;;;;;;;;;10.20;94.60;;;;;;5018944;28;19995;-75
2023/01/13 07:02:26;;;;;;;;;;;10.20;94.60;;;;;;5019273;28;19950;-75
2023/01/13 07:04:53;;;;;;;;;;;10.20;94.70;;;;;;5021941;28;19940;-76
2023/01/13 07:07:19;;;;;;;;;;;10.10;94.60;;;;;;5023550;28;19929;-75
2023/01/13 07:09:47;;;;;;;;;;;10.10;94.60;;;;;;5017107;28;19933;-75
2023/01/13 07:12:14;;;;;;;;;;;10.10;94.60;;;;;;5020770;28;19960;-75
2023/01/13 07:17:24;;;;;;;;;;;10.10;94.60;;;;;;5025325;28;19956;-75
2023/01/13 07:19:51;;;;;;;;;;;10.20;94.70;;;;;;5021977;28;20011;-75
2023/01/13 07:22:18;;;;;;;;;;;10.10;94.60;;;;;;5026216;28;20011;-75
2023/01/13 07:24:45;;;;;;;;;;;10.20;94.70;;;;;;5020600;28;20505;-75
2023/01/13 07:27:12;;;;;;;;;;;10.10;94.60;;;;;;5021850;28;19930;-75
2023/01/13 07:29:39;;;;;;;;;;;10.10;94.70;;;;;;5026762;28;20349;-74
2023/01/13 07:32:06;;;;;;;;;;;10.20;94.90;;;;;;5022092;28;20001;-73
2023/01/13 07:34:33;;;;;;;;;;;10.20;95.10;;;;;;5019994;28;19939;-73
2023/01/13 07:37:00;;;;;;;;;;;10.10;95.30;;;;;;5021124;28;19933;-74
2023/01/13 07:39:26;;;;;;;;;;;10.10;95.60;;;;;;5020867;28;19925;-74
2023/01/13 07:44:38;;;;;;;;;;;10.10;96.20;;;;;;5017704;28;19936;-74
2023/01/13 07:47:07;;;;;;;;;;;10.10;96.40;;;;;;5019744;28;19936;-74
2023/01/13 07:49:33;;;;;;;;;;;10.10;96.50;;;;;;5016894;28;19929;-74
2023/01/13 07:52:00;;;;;;;;;;;10.00;96.60;;;;;;5021821;28;19929;-74
2023/01/13 07:54:26;;;;;;;;;;;10.00;96.70;;;;;;5025433;28;19926;-75
2023/01/13 07:56:55;;;;;;;;;;;10.00;96.70;;;;;;5020783;28;19929;-74
2023/01/13 07:59:22;;;;;;;;;;;10.00;96.80;;;;;;5022752;28;19997;-75
2023/01/13 08:01:51;;;;;;;;;;;10.00;96.90;;;;;;5021070;28;20376;-74
2023/01/13 08:04:18;;;;;;;;;;;9.90;96.90;;;;;;5025972;28;19964;-75
2023/01/13 08:06:45;;;;;;;;;;;9.90;97.00;;;;;;5019582;28;19925;-74
2023/01/13 08:09:11;;;;;;;;;;;9.90;97.10;;;;;;5018523;28;19929;-74
2023/01/13 08:11:38;;;;;;;;;;;9.90;97.10;;;;;;5015365;28;19930;-74
2023/01/13 08:14:04;;;;;;;;;;;9.80;97.10;;;;;;5018587;28;19933;-74
2023/01/13 08:16:32;;;;;;;;;;;9.80;97.20;;;;;;5014937;28;20346;-74
2023/01/13 08:19:00;;;;;;;;;;;9.80;97.30;;;;;;5013807;28;19936;-74
2023/01/13 08:21:27;;;;;;;;;;;9.80;97.30;;;;;;5018276;28;19929;-83
2023/01/13 08:23:53;;;;;;;;;;;9.80;97.40;;;;;;5022609;28;19945;-82
2023/01/13 08:26:21;;;;;;;;;;;9.70;97.40;;;;;;5016932;28;19929;-82
2023/01/13 08:28:47;;;;;;;;;;;9.70;97.40;;;;;;5015250;28;20020;-82
2023/01/13 08:31:15;;;;;;;;;;;9.70;97.50;;;;;;5013044;28;19937;-83
2023/01/13 08:33:42;;;;;;;;;;;9.70;97.50;;;;;;5015839;28;19979;-80
2023/01/13 08:36:11;;;;;;;;;;;9.70;97.60;;;;;;5016540;28;19933;-82
2023/01/13 08:38:37;;;;;;;;;;;9.60;97.60;;;;;;5018926;28;19933;-81
2023/01/13 08:41:08;;;;;;;;;;;9.60;97.70;;;;;;5014966;28;19940;-81
2023/01/13 08:43:34;;;;;;;;;;;9.60;97.70;;;;;;5021053;28;19933;-81
2023/01/13 08:46:03;;;;;;;;;;;9.60;97.80;;;;;;5014688;28;20620;-81
2023/01/13 08:48:29;;;;;;;;;;;9.60;97.80;;;;;;5014503;28;19929;-82
2023/01/13 08:51:01;;;;;;;;;;;9.50;97.80;;;;;;5021162;28;20545;-81
2023/01/13 08:53:29;;;;;;;;;;;9.60;97.80;;;;;;5017688;28;19936;-83
2023/01/13 08:55:55;;;;;;;;;;;9.50;97.80;;;;;;5013846;28;19936;-81
2023/01/13 08:58:22;;;;;;;;;;;9.50;98.20;;;;;;5018307;28;20387;-81
2023/01/13 09:00:48;;;;;;;;;;;9.50;97.90;;;;;;5010174;28;19937;-79
2023/01/13 09:03:15;;;;;;;;;;;9.50;97.90;;;;;;5012786;28;19935;-80
2023/01/13 09:05:41;;;;;;;;;;;9.50;97.90;;;;;;5017381;28;19933;-82
2023/01/13 09:08:08;;;;;;;;;;;9.50;97.90;;;;;;5017300;28;19936;-81
2023/01/13 09:10:36;;;;;;;;;;;9.50;97.90;;;;;;5015949;28;19929;-80
2023/01/13 09:13:10;;;;;;;;;;;9.40;98.00;;;;;;5021016;28;19929;-81
2023/01/13 09:15:37;;;;;;;;;;;9.40;98.00;;;;;;5015080;28;19936;-81
2023/01/13 09:18:04;;;;;;;;;;;9.40;98.00;;;;;;5017939;28;20267;-79
2023/01/13 09:20:30;;;;;;;;;;;9.40;98.10;;;;;;5016605;28;19929;-79
2023/01/13 09:22:57;;;;;;;;;;;9.40;98.10;;;;;;5019720;28;19929;-80
2023/01/13 09:25:23;;;;;;;;;;;9.40;98.20;;;;;;5016011;28;19940;-78
2023/01/13 09:27:51;;;;;;;;;;;9.40;98.20;;;;;;5019125;28;20570;-79
2023/01/13 09:30:18;;;;;;;;;;;9.40;98.20;;;;;;5012220;28;19979;-80
2023/01/13 09:32:44;;;;;;;;;;;9.40;98.30;;;;;;5012324;28;19933;-82
2023/01/13 09:35:10;;;;;;;;;;;9.40;98.30;;;;;;5014446;28;22043;-81
2023/01/13 09:37:38;;;;;;;;;;;9.40;98.30;;;;;;5011520;28;19925;-80
2023/01/13 09:40:05;;;;;;;;;;;9.40;98.40;;;;;;5009038;28;19929;-78
2023/01/13 09:45:29;;;;;;;;;;;9.40;99.00;;;;;;5021159;28;19936;-80
2023/01/13 09:48:01;;;;;;;;;;;9.50;98.90;;;;;;5018980;28;19939;-79
2023/01/13 09:50:32;;;;;;;;;;;9.40;98.90;;;;;;5020222;28;20651;-82
2023/01/13 09:53:00;;;;;;;;;;;9.40;99.00;;;;;;5013925;28;20015;-79
2023/01/13 09:55:30;;;;;;;;;;;9.30;99.00;;;;;;5015035;28;20405;-80
2023/01/13 09:57:56;;;;;;;;;;;9.30;99.00;;;;;;5015054;28;19940;-81
2023/01/13 10:00:24;;;;;;;;;;;9.30;99.10;;;;;;5014173;28;20091;-80
2023/01/13 10:03:09;;;;;;;;;;;9.30;99.10;;;;;;5014089;28;19929;-83
2023/01/13 10:05:37;;;;;;;;;;;9.30;99.20;;;;;;5019593;28;19987;-83
2023/01/13 10:08:07;;;;;;;;;;;9.30;99.20;;;;;;5025035;28;19940;-82
2023/01/13 10:10:38;;;;;;;;;;;9.40;99.30;;;;;;5026358;28;19933;-82
2023/01/13 10:13:15;;;;;;;;;;;9.30;99.20;;;;;;5024080;28;20540;-80
2023/01/13 10:15:45;;;;;;;;;;;9.30;99.20;;;;;;5015187;28;20639;-83
2023/01/13 10:18:17;;;;;;;;;;;9.30;99.20;;;;;;5015130;28;19929;-83
2023/01/13 10:20:50;;;;;;;;;;;9.40;99.20;;;;;;5021309;28;21523;-81
2023/01/13 10:23:33;;;;;;;;;;;9.40;99.20;;;;;;5017321;28;19936;-84
2023/01/13 10:26:03;;;;;;;;;;;9.40;99.20;;;;;;5016783;28;20488;-80
2023/01/13 10:28:30;;;;;;;;;;;9.40;99.20;;;;;;5013895;28;19936;-81
2023/01/13 10:30:57;;;;;;;;;;;9.40;99.20;;;;;;5016048;28;19936;-81
2023/01/13 10:33:27;;;;;;;;;;;9.40;99.20;;;;;;5015402;28;19929;-83
2023/01/13 10:35:55;;;;;;;;;;;9.40;99.20;;;;;;5014949;28;20749;-82
2023/01/13 10:38:23;;;;;;;;;;;9.40;99.20;;;;;;5016574;28;19925;-82
2023/01/13 10:40:51;;;;;;;;;;;9.40;99.10;;;;;;5015752;28;19929;-80
2023/01/13 10:43:17;;;;;;;;;;;9.40;99.10;;;;;;5015563;28;20371;-81
2023/01/13 10:45:51;;;;;;;;;;;9.40;99.10;;;;;;5013202;28;19940;-81
2023/01/13 10:48:18;;;;;;;;;;;9.40;99.10;;;;;;5016483;28;19933;-81
2023/01/13 10:50:47;;;;;;;;;;;9.30;99.00;;;;;;5020985;28;19933;-80
2023/01/13 10:53:18;;;;;;;;;;;9.40;99.00;;;;;;5021636;28;20063;-81
2023/01/13 10:55:57;;;;;;;;;;;9.40;99.10;;;;;;5015161;28;19932;-78
2023/01/13 10:58:24;;;;;;;;;;;9.30;99.00;;;;;;5017473;28;19936;-82
2023/01/13 11:00:58;;;;;;;;;;;9.30;99.00;;;;;;5018853;28;19936;-79
2023/01/13 11:03:26;;;;;;;;;;;9.40;99.10;;;;;;5018077;28;19941;-80
2023/01/13 11:05:55;;;;;;;;;;;9.40;99.10;;;;;;5015924;28;19963;-80
2023/01/13 11:08:23;;;;;;;;;;;9.30;99.10;;;;;;5014472;28;20395;-81
2023/01/13 11:10:51;;;;;;;;;;;9.30;99.10;;;;;;5015243;28;20005;-79
2023/01/13 11:13:19;;;;;;;;;;;9.40;99.10;;;;;;5010334;28;19929;-78
2023/01/13 11:15:49;;;;;;;;;;;9.30;99.00;;;;;;5010550;28;19944;-77
2023/01/13 11:18:19;;;;;;;;;;;9.30;99.00;;;;;;5009487;28;19929;-80
2023/01/13 11:20:47;;;;;;;;;;;9.30;99.00;;;;;;5011613;28;19936;-81
2023/01/13 11:23:17;;;;;;;;;;;9.30;98.90;;;;;;5013025;28;19930;-79
2023/01/13 11:25:46;;;;;;;;;;;9.30;98.90;;;;;;5011341;28;19941;-79
2023/01/13 11:28:21;;;;;;;;;;;9.30;98.90;;;;;;5007950;28;19941;-79
2023/01/13 11:30:49;;;;;;;;;;;9.30;98.90;;;;;;5011969;28;19929;-79
2023/01/13 11:33:32;;;;;;;;;;;9.40;99.20;;;;;;5010084;28;20692;-78
2023/01/13 11:36:05;;;;;;;;;;;9.40;98.90;;;;;;5016738;28;19940;-79
2023/01/13 11:38:37;;;;;;;;;;;9.30;98.80;;;;;;5020063;28;21032;-80
2023/01/13 11:41:07;;;;;;;;;;;9.40;98.80;;;;;;5006225;28;19933;-78
2023/01/13 11:43:36;;;;;;;;;;;9.40;98.80;;;;;;5014957;28;19929;-77
2023/01/13 11:46:02;;;;;;;;;;;9.40;98.80;;;;;;5016699;28;19937;-79
2023/01/13 11:48:30;;;;;;;;;;;9.40;98.80;;;;;;5012252;28;19925;-79
2023/01/13 11:50:59;;;;;;;;;;;9.30;98.70;;;;;;5018127;28;19925;-79
2023/01/13 11:53:44;;;;;;;;;;;9.40;98.80;;;;;;5016638;28;20162;-79
2023/01/13 11:56:23;;;;;;;;;;;9.40;98.70;;;;;;4994495;28;19929;-81
2023/01/13 11:58:58;;;;;;;;;;;9.40;98.70;;;;;;5014712;28;19936;-78
2023/01/13 12:01:30;;;;;;;;;;;9.40;98.70;;;;;;5011990;28;19930;-81
2023/01/13 12:04:03;;;;;;;;;;;9.40;98.70;;;;;;5019776;28;19945;-79
2023/01/13 12:06:33;;;;;;;;;;;9.40;98.60;;;;;;5018213;28;20359;-78
2023/01/13 12:09:10;;;;;;;;;;;9.40;98.60;;;;;;5019054;28;19987;-79
2023/01/13 12:14:28;;;;;;;;;;;9.40;98.30;;;;;;5016309;28;19929;-81
2023/01/13 12:16:54;;;;;;;;;;;9.40;98.20;;;;;;5019088;28;19933;-78
2023/01/13 12:19:26;;;;;;;;;;;9.40;98.10;;;;;;5021146;28;20296;-80
2023/01/13 12:21:58;;;;;;;;;;;9.40;98.00;;;;;;5017083;28;20399;-78
2023/01/13 12:24:28;;;;;;;;;;;9.40;97.90;;;;;;5010423;28;19933;-80
2023/01/13 12:26:58;;;;;;;;;;;9.40;97.80;;;;;;5013759;28;20046;-77
2023/01/13 12:29:28;;;;;;;;;;;9.40;97.70;;;;;;5016968;28;20430;-77
2023/01/13 12:31:55;;;;;;;;;;;9.40;97.50;;;;;;5010757;28;19933;-76
2023/01/13 12:34:39;;;;;;;;;;;9.40;97.40;;;;;;5015174;28;20059;-76
2023/01/13 12:37:09;;;;;;;;;;;9.40;97.20;;;;;;5014952;28;19928;-77
2023/01/13 12:39:42;;;;;;;;;;;9.40;97.00;;;;;;5016752;28;19933;-79
2023/01/13 12:45:07;;;;;;;;;;;9.40;96.70;;;;;;5019043;28;20421;-77
2023/01/13 12:47:34;;;;;;;;;;;9.40;96.60;;;;;;5016677;28;19936;-77
2023/01/13 12:50:15;;;;;;;;;;;9.30;96.40;;;;;;5018624;28;19936;-77
2023/01/13 12:52:43;;;;;;;;;;;9.40;96.40;;;;;;5020873;28;19929;-77
2023/01/13 12:55:14;;;;;;;;;;;9.30;96.30;;;;;;5019179;28;20024;-80
2023/01/13 12:57:54;;;;;;;;;;;9.30;96.30;;;;;;5019770;28;19936;-77
2023/01/13 13:00:21;;;;;;;;;;;9.30;96.30;;;;;;5020474;28;19936;-78
2023/01/13 13:03:06;;;;;;;;;;;9.30;96.40;;;;;;5019593;28;20444;-77
2023/01/13 13:05:44;;;;;;;;;;;9.30;96.50;;;;;;5019547;28;20020;-75
2023/01/13 13:08:14;;;;;;;;;;;9.30;96.70;;;;;;5015599;28;19956;-77
2023/01/13 13:10:44;;;;;;;;;;;9.30;96.70;;;;;;5020840;28;19929;-76
2023/01/13 13:13:21;;;;;;;;;;;9.30;96.70;;;;;;5016616;28;19960;-78
2023/01/13 13:15:48;;;;;;;;;;;9.30;96.70;;;;;;5020888;28;19933;-77
2023/01/13 13:18:23;;;;;;;;;;;9.30;96.70;;;;;;5016808;28;19929;-77
2023/01/13 13:20:54;;;;;;;;;;;9.40;96.60;;;;;;5019258;28;19933;-78
2023/01/13 13:23:46;;;;;;;;;;;9.40;96.50;;;;;;5018255;28;20005;-77
2023/01/13 13:26:30;;;;;;;;;;;9.40;96.30;;;;;;4993877;28;20410;-77
2023/01/13 13:29:11;;;;;;;;;;;9.40;96.00;;;;;;5019444;28;19929;-77
2023/01/13 13:31:50;;;;;;;;;;;9.40;95.70;;;;;;5012842;28;20336;-79
2023/01/13 13:34:21;;;;;;;;;;;9.40;95.40;;;;;;5021067;28;19944;-77
2023/01/13 13:36:57;;;;;;;;;;;9.40;95.20;;;;;;5022966;28;19936;-76
2023/01/13 13:47:43;;;;;;;;;;;9.40;94.00;;;;;;5011698;28;19940;-77
2023/01/13 13:50:13;;;;;;;;;;;9.40;93.80;;;;;;5014374;28;21688;-78
2023/01/13 13:52:41;;;;;;;;;;;9.40;93.80;;;;;;5015488;28;20407;-83
2023/01/13 13:55:13;;;;;;;;;;;9.40;93.80;;;;;;5010696;28;20869;-84
2023/01/13 13:57:41;;;;;;;;;;;9.40;93.70;;;;;;5014826;28;19933;-79
2023/01/13 14:00:18;;;;;;;;;;;9.50;93.70;;;;;;5013345;28;20018;-80
2023/01/13 14:02:47;;;;;;;;;;;9.50;93.70;;;;;;5014503;28;19936;-80
2023/01/13 14:05:18;;;;;;;;;;;9.50;93.70;;;;;;5014283;28;21494;-79
2023/01/13 14:07:45;;;;;;;;;;;9.60;93.70;;;;;;5017173;28;19933;-81
2023/01/13 14:10:16;;;;;;;;;;;9.60;93.70;;;;;;5018439;28;19929;-81
2023/01/13 14:12:42;;;;;;;;;;;9.60;93.70;;;;;;5019179;28;19929;-81
2023/01/13 14:15:24;;;;;;;;;;;9.50;93.70;;;;;;5017202;28;19933;-79
2023/01/13 14:17:50;;;;;;;;;;;9.50;93.70;;;;;;5014510;28;19929;-80
2023/01/13 14:20:18;;;;;;;;;;;9.50;93.70;;;;;;5016677;28;19937;-80
2023/01/13 14:22:46;;;;;;;;;;;9.50;93.80;;;;;;5019038;28;20019;-77
2023/01/13 14:25:26;;;;;;;;;;;9.50;93.90;;;;;;5021546;28;19929;-77
2023/01/13 14:27:53;;;;;;;;;;;9.50;94.10;;;;;;5022858;28;19928;-80
2023/01/13 14:30:20;;;;;;;;;;;9.40;94.20;;;;;;5015010;28;19933;-77
2023/01/13 14:32:48;;;;;;;;;;;9.40;94.30;;;;;;5014432;28;20327;-80
2023/01/13 14:35:15;;;;;;;;;;;9.40;94.40;;;;;;5014827;28;19940;-81
2023/01/13 14:37:43;;;;;;;;;;;9.40;94.50;;;;;;5015315;28;19991;-79
2023/01/13 14:40:24;;;;;;;;;;;9.30;94.50;;;;;;5014961;28;19936;-79
2023/01/13 14:42:57;;;;;;;;;;;9.30;94.60;;;;;;5015278;28;19929;-82
2023/01/13 14:45:24;;;;;;;;;;;9.30;94.60;;;;;;5011465;28;19929;-80
2023/01/13 14:47:53;;;;;;;;;;;9.30;94.70;;;;;;5018530;28;20391;-78
2023/01/13 14:50:23;;;;;;;;;;;9.30;94.80;;;;;;5016471;28;19933;-80
2023/01/13 14:52:53;;;;;;;;;;;9.20;94.80;;;;;;5012728;28;22330;-80
2023/01/13 14:55:24;;;;;;;;;;;9.20;94.90;;;;;;5012563;28;20088;-84
2023/01/13 14:57:51;;;;;;;;;;;9.20;95.30;;;;;;5009245;28;20006;-78
2023/01/13 15:00:20;;;;;;;;;;;9.20;95.00;;;;;;5008584;28;21083;-78
2023/01/13 15:02:47;;;;;;;;;;;9.20;95.00;;;;;;5019063;28;19929;-78
2023/01/13 15:05:32;;;;;;;;;;;9.20;95.10;;;;;;5017796;28;19964;-78
2023/01/13 15:08:02;;;;;;;;;;;9.10;95.10;;;;;;5024752;28;19936;-78
2023/01/13 15:10:29;;;;;;;;;;;9.10;95.20;;;;;;5023663;28;19929;-79
2023/01/13 15:12:57;;;;;;;;;;;9.10;95.30;;;;;;5021270;28;20358;-78
2023/01/13 15:15:24;;;;;;;;;;;9.10;95.30;;;;;;5011468;28;19929;-78
2023/01/13 15:17:51;;;;;;;;;;;9.10;95.30;;;;;;5015942;28;19956;-79
2023/01/13 15:20:18;;;;;;;;;;;9.00;95.20;;;;;;5020948;28;19936;-78
2023/01/13 15:22:45;;;;;;;;;;;9.10;95.20;;;;;;5017717;28;20414;-79